sensor_id;sensor_type;location;lat;lon;timestamp;P1;durP1;ratioP1;P2;durP2;ratioP2
73474;SDS011;61711;52.266;10.542;2023-07-20T00:00:39;1.75;;;1.65;;
73474;SDS011;61711;52.266;10.542;2023-07-20T00:03:12;1.77;;;1.50;;
73474;SDS011;61711;52.266;10.542;2023-07-20T00:05:41;2.08;;;1.73;;
73474;SDS011;61711;52.266;10.542;2023-07-20T00:08:07;2.35;;;1.60;;
73474;SDS011;61711;52.266;10.542;2023-07-20T00:10:33;1.80;;;1.70;;
73474;SDS011;61711;52.266;10.542;2023-07-20T00:12:59;1.83;;;1.73;;
73474;SDS011;61711;52.266;10.542;2023-07-20T00:15:25;2.08;;;1.77;;
73474;SDS011;61711;52.266;10.542;2023-07-20T00:17:51;1.60;;;1.50;;
73474;SDS011;61711;52.266;10.542;2023-07-20T00:20:17;2.55;;;1.60;;
73474;SDS011;61711;52.266;10.542;2023-07-20T00:22:43;2.58;;;1.80;;
73474;SDS011;61711;52.266;10.542;2023-07-20T00:25:09;2.10;;;1.42;;
73474;SDS011;61711;52.266;10.542;2023-07-20T00:27:36;1.60;;;1.50;;
73474;SDS011;61711;52.266;10.542;2023-07-20T00:30:03;2.35;;;1.77;;
73474;SDS011;61711;52.266;10.542;2023-07-20T00:32:30;2.45;;;1.70;;
73474;SDS011;61711;52.266;10.542;2023-07-20T00:34:56;2.88;;;1.50;;
73474;SDS011;61711;52.266;10.542;2023-07-20T00:37:21;1.60;;;1.50;;
73474;SDS011;61711;52.266;10.542;2023-07-20T00:39:48;1.73;;;1.30;;
73474;SDS011;61711;52.266;10.542;2023-07-20T00:42:14;1.80;;;1.70;;
73474;SDS011;61711;52.266;10.542;2023-07-20T00:44:40;2.85;;;1.48;;
73474;SDS011;61711;52.266;10.542;2023-07-20T00:47:06;1.58;;;1.42;;
73474;SDS011;61711;52.266;10.542;2023-07-20T00:49:32;1.65;;;1.52;;
73474;SDS011;61711;52.266;10.542;2023-07-20T00:51:59;2.17;;;1.65;;
73474;SDS011;61711;52.266;10.542;2023-07-20T00:54:25;2.08;;;1.48;;
73474;SDS011;61711;52.266;10.542;2023-07-20T00:56:52;2.40;;;1.70;;
73474;SDS011;61711;52.266;10.542;2023-07-20T00:59:19;1.88;;;1.73;;
73474;SDS011;61711;52.266;10.542;2023-07-20T01:01:45;1.75;;;1.65;;
73474;SDS011;61711;52.266;10.542;2023-07-20T01:04:11;2.53;;;1.67;;
73474;SDS011;61711;52.266;10.542;2023-07-20T01:11:57;2.05;;;1.70;;
73474;SDS011;61711;52.266;10.542;2023-07-20T01:14:25;2.50;;;1.50;;
73474;SDS011;61711;52.266;10.542;2023-07-20T01:16:51;2.00;;;1.45;;
73474;SDS011;61711;52.266;10.542;2023-07-20T01:19:17;1.60;;;1.50;;
73474;SDS011;61711;52.266;10.542;2023-07-20T01:22:00;2.38;;;1.70;;
73474;SDS011;61711;52.266;10.542;2023-07-20T01:27:00;2.47;;;1.42;;
73474;SDS011;61711;52.266;10.542;2023-07-20T01:29:55;2.08;;;1.48;;
73474;SDS011;61711;52.266;10.542;2023-07-20T01:32:23;2.05;;;1.60;;
73474;SDS011;61711;52.266;10.542;2023-07-20T01:34:50;1.60;;;1.50;;
73474;SDS011;61711;52.266;10.542;2023-07-20T01:37:18;1.60;;;1.50;;
73474;SDS011;61711;52.266;10.542;2023-07-20T01:39:45;1.77;;;1.67;;
73474;SDS011;61711;52.266;10.542;2023-07-20T01:42:11;4.15;;;1.67;;
73474;SDS011;61711;52.266;10.542;2023-07-20T01:44:38;1.80;;;1.52;;
73474;SDS011;61711;52.266;10.542;2023-07-20T01:47:04;3.05;;;1.60;;
73474;SDS011;61711;52.266;10.542;2023-07-20T01:49:30;2.30;;;1.60;;
73474;SDS011;61711;52.266;10.542;2023-07-20T01:51:56;1.70;;;1.60;;
73474;SDS011;61711;52.266;10.542;2023-07-20T01:54:22;2.13;;;1.75;;
73474;SDS011;61711;52.266;10.542;2023-07-20T01:56:48;1.95;;;1.60;;
73474;SDS011;61711;52.266;10.542;2023-07-20T01:59:15;1.67;;;1.48;;
73474;SDS011;61711;52.266;10.542;2023-07-20T02:01:40;1.77;;;1.33;;
73474;SDS011;61711;52.266;10.542;2023-07-20T02:04:06;1.52;;;1.42;;
73474;SDS011;61711;52.266;10.542;2023-07-20T02:06:32;1.60;;;1.45;;
73474;SDS011;61711;52.266;10.542;2023-07-20T02:08:58;2.03;;;1.50;;
73474;SDS011;61711;52.266;10.542;2023-07-20T02:11:24;4.22;;;1.48;;
73474;SDS011;61711;52.266;10.542;2023-07-20T02:13:51;1.83;;;1.48;;
73474;SDS011;61711;52.266;10.542;2023-07-20T02:16:16;1.48;;;1.38;;
73474;SDS011;61711;52.266;10.542;2023-07-20T02:18:42;2.35;;;1.27;;
73474;SDS011;61711;52.266;10.542;2023-07-20T02:21:08;1.88;;;1.23;;
73474;SDS011;61711;52.266;10.542;2023-07-20T02:23:34;1.30;;;1.20;;
73474;SDS011;61711;52.266;10.542;2023-07-20T02:26:00;1.77;;;1.40;;
73474;SDS011;61711;52.266;10.542;2023-07-20T02:28:26;1.38;;;1.27;;
73474;SDS011;61711;52.266;10.542;2023-07-20T02:30:54;2.00;;;1.48;;
73474;SDS011;61711;52.266;10.542;2023-07-20T02:33:20;2.45;;;1.42;;
73474;SDS011;61711;52.266;10.542;2023-07-20T02:35:46;1.35;;;1.20;;
73474;SDS011;61711;52.266;10.542;2023-07-20T02:38:12;1.45;;;1.35;;
73474;SDS011;61711;52.266;10.542;2023-07-20T02:40:39;1.55;;;1.30;;
73474;SDS011;61711;52.266;10.542;2023-07-20T02:43:05;3.78;;;1.50;;
73474;SDS011;61711;52.266;10.542;2023-07-20T02:45:31;1.88;;;1.63;;
73474;SDS011;61711;52.266;10.542;2023-07-20T02:47:57;3.25;;;1.50;;
73474;SDS011;61711;52.266;10.542;2023-07-20T02:50:23;2.30;;;1.65;;
73474;SDS011;61711;52.266;10.542;2023-07-20T02:52:49;1.73;;;1.50;;
73474;SDS011;61711;52.266;10.542;2023-07-20T02:55:15;2.47;;;1.67;;
73474;SDS011;61711;52.266;10.542;2023-07-20T02:57:41;1.77;;;1.50;;
73474;SDS011;61711;52.266;10.542;2023-07-20T03:00:07;1.40;;;1.30;;
73474;SDS011;61711;52.266;10.542;2023-07-20T03:02:33;2.00;;;1.50;;
73474;SDS011;61711;52.266;10.542;2023-07-20T03:04:59;1.70;;;1.60;;
73474;SDS011;61711;52.266;10.542;2023-07-20T03:07:27;2.28;;;1.67;;
73474;SDS011;61711;52.266;10.542;2023-07-20T03:09:53;3.40;;;1.65;;
73474;SDS011;61711;52.266;10.542;2023-07-20T03:12:20;2.97;;;1.58;;
73474;SDS011;61711;52.266;10.542;2023-07-20T03:14:46;2.05;;;1.65;;
73474;SDS011;61711;52.266;10.542;2023-07-20T03:17:12;2.08;;;1.65;;
73474;SDS011;61711;52.266;10.542;2023-07-20T03:19:38;2.58;;;1.80;;
73474;SDS011;61711;52.266;10.542;2023-07-20T03:22:05;2.58;;;1.70;;
73474;SDS011;61711;52.266;10.542;2023-07-20T03:24:31;2.10;;;1.70;;
73474;SDS011;61711;52.266;10.542;2023-07-20T03:26:58;2.80;;;1.60;;
73474;SDS011;61711;52.266;10.542;2023-07-20T03:29:24;2.70;;;1.60;;
73474;SDS011;61711;52.266;10.542;2023-07-20T03:31:50;1.90;;;1.60;;
73474;SDS011;61711;52.266;10.542;2023-07-20T03:34:16;3.22;;;1.50;;
73474;SDS011;61711;52.266;10.542;2023-07-20T03:36:42;2.00;;;1.55;;
73474;SDS011;61711;52.266;10.542;2023-07-20T03:39:08;4.10;;;1.48;;
73474;SDS011;61711;52.266;10.542;2023-07-20T03:41:34;2.38;;;1.67;;
73474;SDS011;61711;52.266;10.542;2023-07-20T03:44:02;4.05;;;1.45;;
73474;SDS011;61711;52.266;10.542;2023-07-20T03:46:28;4.18;;;1.45;;
73474;SDS011;61711;52.266;10.542;2023-07-20T03:48:54;2.17;;;1.60;;
73474;SDS011;61711;52.266;10.542;2023-07-20T03:51:20;6.60;;;5.07;;
73474;SDS011;61711;52.266;10.542;2023-07-20T03:53:46;2.38;;;1.55;;
73474;SDS011;61711;52.266;10.542;2023-07-20T03:56:12;4.03;;;2.00;;
73474;SDS011;61711;52.266;10.542;2023-07-20T03:58:38;1.60;;;1.50;;
73474;SDS011;61711;52.266;10.542;2023-07-20T04:01:04;2.08;;;1.60;;
73474;SDS011;61711;52.266;10.542;2023-07-20T04:03:30;2.00;;;1.50;;
73474;SDS011;61711;52.266;10.542;2023-07-20T04:05:56;1.33;;;1.23;;
73474;SDS011;61711;52.266;10.542;2023-07-20T04:08:25;2.75;;;1.50;;
73474;SDS011;61711;52.266;10.542;2023-07-20T04:10:51;1.90;;;1.40;;
73474;SDS011;61711;52.266;10.542;2023-07-20T04:13:17;1.60;;;1.40;;
73474;SDS011;61711;52.266;10.542;2023-07-20T04:15:43;2.20;;;1.58;;
73474;SDS011;61711;52.266;10.542;2023-07-20T04:18:09;1.50;;;1.40;;
73474;SDS011;61711;52.266;10.542;2023-07-20T04:20:35;1.80;;;1.45;;
73474;SDS011;61711;52.266;10.542;2023-07-20T04:23:01;2.83;;;1.75;;
73474;SDS011;61711;52.266;10.542;2023-07-20T04:25:27;2.42;;;1.50;;
73474;SDS011;61711;52.266;10.542;2023-07-20T04:27:53;3.95;;;1.70;;
73474;SDS011;61711;52.266;10.542;2023-07-20T04:30:20;2.58;;;1.60;;
73474;SDS011;61711;52.266;10.542;2023-07-20T04:32:47;1.95;;;1.75;;
73474;SDS011;61711;52.266;10.542;2023-07-20T04:37:58;2.65;;;2.00;;
73474;SDS011;61711;52.266;10.542;2023-07-20T04:40:24;2.17;;;1.70;;
73474;SDS011;61711;52.266;10.542;2023-07-20T04:42:50;1.90;;;1.70;;
73474;SDS011;61711;52.266;10.542;2023-07-20T04:45:16;2.05;;;1.50;;
73474;SDS011;61711;52.266;10.542;2023-07-20T04:47:44;2.10;;;1.70;;
73474;SDS011;61711;52.266;10.542;2023-07-20T04:50:10;4.38;;;1.70;;
73474;SDS011;61711;52.266;10.542;2023-07-20T04:52:35;2.45;;;1.80;;
73474;SDS011;61711;52.266;10.542;2023-07-20T04:55:01;3.55;;;1.70;;
73474;SDS011;61711;52.266;10.542;2023-07-20T04:57:29;2.30;;;1.70;;
73474;SDS011;61711;52.266;10.542;2023-07-20T04:59:55;2.28;;;1.90;;
73474;SDS011;61711;52.266;10.542;2023-07-20T05:02:21;2.97;;;1.50;;
73474;SDS011;61711;52.266;10.542;2023-07-20T05:04:47;1.70;;;1.60;;
73474;SDS011;61711;52.266;10.542;2023-07-20T05:07:13;2.63;;;1.80;;
73474;SDS011;61711;52.266;10.542;2023-07-20T05:09:39;3.75;;;1.90;;
73474;SDS011;61711;52.266;10.542;2023-07-20T05:12:05;2.88;;;1.85;;
73474;SDS011;61711;52.266;10.542;2023-07-20T05:14:32;2.13;;;1.63;;
73474;SDS011;61711;52.266;10.542;2023-07-20T05:16:58;3.97;;;1.80;;
73474;SDS011;61711;52.266;10.542;2023-07-20T05:19:24;2.50;;;1.88;;
73474;SDS011;61711;52.266;10.542;2023-07-20T05:21:50;2.25;;;1.70;;
73474;SDS011;61711;52.266;10.542;2023-07-20T05:24:16;3.03;;;1.83;;
73474;SDS011;61711;52.266;10.542;2023-07-20T05:26:42;1.65;;;1.55;;
73474;SDS011;61711;52.266;10.542;2023-07-20T05:29:08;2.33;;;1.77;;
73474;SDS011;61711;52.266;10.542;2023-07-20T05:31:34;2.20;;;1.70;;
73474;SDS011;61711;52.266;10.542;2023-07-20T05:34:00;2.05;;;1.67;;
73474;SDS011;61711;52.266;10.542;2023-07-20T05:36:26;3.45;;;2.00;;
73474;SDS011;61711;52.266;10.542;2023-07-20T05:38:52;2.05;;;1.70;;
73474;SDS011;61711;52.266;10.542;2023-07-20T05:41:19;2.03;;;1.83;;
73474;SDS011;61711;52.266;10.542;2023-07-20T05:43:45;3.85;;;2.60;;
73474;SDS011;61711;52.266;10.542;2023-07-20T05:46:11;3.60;;;2.30;;
73474;SDS011;61711;52.266;10.542;2023-07-20T05:48:37;3.45;;;2.30;;
73474;SDS011;61711;52.266;10.542;2023-07-20T05:51:03;2.42;;;2.20;;
73474;SDS011;61711;52.266;10.542;2023-07-20T05:53:29;2.63;;;1.90;;
73474;SDS011;61711;52.266;10.542;2023-07-20T05:55:55;4.43;;;2.42;;
73474;SDS011;61711;52.266;10.542;2023-07-20T05:58:21;3.28;;;2.40;;
73474;SDS011;61711;52.266;10.542;2023-07-20T06:00:48;4.85;;;2.60;;
73474;SDS011;61711;52.266;10.542;2023-07-20T06:03:14;5.07;;;2.50;;
73474;SDS011;61711;52.266;10.542;2023-07-20T06:05:43;4.30;;;2.60;;
73474;SDS011;61711;52.266;10.542;2023-07-20T06:08:09;3.60;;;2.75;;
73474;SDS011;61711;52.266;10.542;2023-07-20T06:10:35;3.85;;;2.67;;
73474;SDS011;61711;52.266;10.542;2023-07-20T06:13:01;4.43;;;3.00;;
73474;SDS011;61711;52.266;10.542;2023-07-20T06:15:33;6.25;;;3.20;;
73474;SDS011;61711;52.266;10.542;2023-07-20T06:18:04;4.38;;;2.95;;
73474;SDS011;61711;52.266;10.542;2023-07-20T06:20:30;4.55;;;3.10;;
73474;SDS011;61711;52.266;10.542;2023-07-20T06:22:56;4.65;;;3.28;;
73474;SDS011;61711;52.266;10.542;2023-07-20T06:25:22;4.10;;;2.67;;
73474;SDS011;61711;52.266;10.542;2023-07-20T06:27:48;3.60;;;2.83;;
73474;SDS011;61711;52.266;10.542;2023-07-20T06:30:16;4.68;;;2.88;;
73474;SDS011;61711;52.266;10.542;2023-07-20T06:32:42;4.93;;;2.72;;
73474;SDS011;61711;52.266;10.542;2023-07-20T06:35:08;4.65;;;2.90;;
73474;SDS011;61711;52.266;10.542;2023-07-20T06:37:34;5.20;;;3.00;;
73474;SDS011;61711;52.266;10.542;2023-07-20T06:40:02;4.15;;;2.70;;
73474;SDS011;61711;52.266;10.542;2023-07-20T06:42:31;5.45;;;2.85;;
73474;SDS011;61711;52.266;10.542;2023-07-20T06:44:57;5.20;;;3.10;;
73474;SDS011;61711;52.266;10.542;2023-07-20T06:47:23;4.45;;;2.90;;
73474;SDS011;61711;52.266;10.542;2023-07-20T06:49:49;3.97;;;3.08;;
73474;SDS011;61711;52.266;10.542;2023-07-20T06:52:15;6.85;;;3.70;;
73474;SDS011;61711;52.266;10.542;2023-07-20T06:54:41;4.97;;;3.33;;
73474;SDS011;61711;52.266;10.542;2023-07-20T06:57:07;3.85;;;3.17;;
73474;SDS011;61711;52.266;10.542;2023-07-20T06:59:33;5.22;;;3.58;;
73474;SDS011;61711;52.266;10.542;2023-07-20T07:01:59;4.35;;;3.53;;
73474;SDS011;61711;52.266;10.542;2023-07-20T07:04:25;8.32;;;3.75;;
73474;SDS011;61711;52.266;10.542;2023-07-20T07:06:52;4.40;;;3.50;;
73474;SDS011;61711;52.266;10.542;2023-07-20T07:09:18;5.43;;;4.00;;
73474;SDS011;61711;52.266;10.542;2023-07-20T07:11:44;5.15;;;4.00;;
73474;SDS011;61711;52.266;10.542;2023-07-20T07:14:11;5.90;;;3.80;;
73474;SDS011;61711;52.266;10.542;2023-07-20T07:16:37;5.97;;;3.92;;
73474;SDS011;61711;52.266;10.542;2023-07-20T07:19:04;4.95;;;3.97;;
73474;SDS011;61711;52.266;10.542;2023-07-20T07:21:32;5.13;;;3.90;;
73474;SDS011;61711;52.266;10.542;2023-07-20T07:23:58;5.35;;;4.05;;
73474;SDS011;61711;52.266;10.542;2023-07-20T07:26:25;5.85;;;4.35;;
73474;SDS011;61711;52.266;10.542;2023-07-20T07:28:51;7.22;;;5.13;;
73474;SDS011;61711;52.266;10.542;2023-07-20T07:31:17;5.95;;;4.50;;
73474;SDS011;61711;52.266;10.542;2023-07-20T07:33:43;7.10;;;4.75;;
73474;SDS011;61711;52.266;10.542;2023-07-20T07:36:09;7.15;;;4.97;;
73474;SDS011;61711;52.266;10.542;2023-07-20T07:38:35;4.38;;;3.95;;
73474;SDS011;61711;52.266;10.542;2023-07-20T07:41:01;4.03;;;3.55;;
73474;SDS011;61711;52.266;10.542;2023-07-20T07:43:27;4.68;;;3.95;;
73474;SDS011;61711;52.266;10.542;2023-07-20T07:45:53;3.80;;;3.30;;
73474;SDS011;61711;52.266;10.542;2023-07-20T07:48:20;7.10;;;2.72;;
73474;SDS011;61711;52.266;10.542;2023-07-20T07:50:47;4.03;;;3.30;;
73474;SDS011;61711;52.266;10.542;2023-07-20T07:53:13;5.30;;;3.22;;
73474;SDS011;61711;52.266;10.542;2023-07-20T07:55:39;3.72;;;2.83;;
73474;SDS011;61711;52.266;10.542;2023-07-20T07:58:06;3.75;;;2.80;;
73474;SDS011;61711;52.266;10.542;2023-07-20T08:00:32;3.90;;;2.90;;
73474;SDS011;61711;52.266;10.542;2023-07-20T08:02:58;4.20;;;2.88;;
73474;SDS011;61711;52.266;10.542;2023-07-20T08:05:24;4.35;;;3.25;;
73474;SDS011;61711;52.266;10.542;2023-07-20T08:07:51;4.30;;;3.90;;
73474;SDS011;61711;52.266;10.542;2023-07-20T08:10:18;3.90;;;3.50;;
73474;SDS011;61711;52.266;10.542;2023-07-20T08:12:44;4.38;;;3.97;;
73474;SDS011;61711;52.266;10.542;2023-07-20T08:15:13;4.30;;;3.90;;
73474;SDS011;61711;52.266;10.542;2023-07-20T08:17:40;4.50;;;4.10;;
73474;SDS011;61711;52.266;10.542;2023-07-20T08:20:07;4.75;;;3.95;;
73474;SDS011;61711;52.266;10.542;2023-07-20T08:22:37;4.68;;;3.42;;
73474;SDS011;61711;52.266;10.542;2023-07-20T08:25:05;4.07;;;3.67;;
73474;SDS011;61711;52.266;10.542;2023-07-20T08:27:31;3.63;;;2.83;;
73474;SDS011;61711;52.266;10.542;2023-07-20T08:29:57;3.25;;;2.67;;
73474;SDS011;61711;52.266;10.542;2023-07-20T08:32:23;3.30;;;3.00;;
73474;SDS011;61711;52.266;10.542;2023-07-20T08:34:49;3.60;;;3.00;;
73474;SDS011;61711;52.266;10.542;2023-07-20T08:37:14;3.33;;;2.35;;
73474;SDS011;61711;52.266;10.542;2023-07-20T08:39:41;3.13;;;2.22;;
73474;SDS011;61711;52.266;10.542;2023-07-20T08:42:07;2.13;;;1.80;;
73474;SDS011;61711;52.266;10.542;2023-07-20T08:44:35;4.18;;;2.15;;
73474;SDS011;61711;52.266;10.542;2023-07-20T08:47:02;2.65;;;1.80;;
73474;SDS011;61711;52.266;10.542;2023-07-20T08:49:32;2.53;;;2.33;;
73474;SDS011;61711;52.266;10.542;2023-07-20T08:51:59;2.05;;;1.85;;
73474;SDS011;61711;52.266;10.542;2023-07-20T08:54:29;2.70;;;2.17;;
73474;SDS011;61711;52.266;10.542;2023-07-20T08:56:57;2.33;;;2.03;;
73474;SDS011;61711;52.266;10.542;2023-07-20T08:59:24;4.45;;;1.83;;
73474;SDS011;61711;52.266;10.542;2023-07-20T09:01:51;2.67;;;1.67;;
73474;SDS011;61711;52.266;10.542;2023-07-20T09:04:19;2.83;;;1.83;;
73474;SDS011;61711;52.266;10.542;2023-07-20T09:06:45;2.58;;;1.60;;
73474;SDS011;61711;52.266;10.542;2023-07-20T09:09:12;2.08;;;1.40;;
73474;SDS011;61711;52.266;10.542;2023-07-20T09:11:38;1.40;;;1.30;;
73474;SDS011;61711;52.266;10.542;2023-07-20T09:14:07;2.15;;;1.60;;
73474;SDS011;61711;52.266;10.542;2023-07-20T09:16:49;1.10;;;1.00;;
73474;SDS011;61711;52.266;10.542;2023-07-20T09:19:16;2.22;;;1.40;;
73474;SDS011;61711;52.266;10.542;2023-07-20T09:21:46;1.63;;;1.20;;
73474;SDS011;61711;52.266;10.542;2023-07-20T09:24:12;2.00;;;1.25;;
73474;SDS011;61711;52.266;10.542;2023-07-20T09:26:41;1.60;;;1.20;;
73474;SDS011;61711;52.266;10.542;2023-07-20T09:29:08;1.88;;;1.38;;
73474;SDS011;61711;52.266;10.542;2023-07-20T09:31:35;1.38;;;1.20;;
73474;SDS011;61711;52.266;10.542;2023-07-20T09:34:01;1.67;;;1.35;;
73474;SDS011;61711;52.266;10.542;2023-07-20T09:36:28;2.08;;;1.33;;
73474;SDS011;61711;52.266;10.542;2023-07-20T09:38:55;1.35;;;1.20;;
73474;SDS011;61711;52.266;10.542;2023-07-20T09:41:21;1.30;;;1.20;;
73474;SDS011;61711;52.266;10.542;2023-07-20T09:43:47;1.20;;;1.10;;
73474;SDS011;61711;52.266;10.542;2023-07-20T09:46:13;3.00;;;1.33;;
73474;SDS011;61711;52.266;10.542;2023-07-20T09:48:39;1.48;;;1.30;;
73474;SDS011;61711;52.266;10.542;2023-07-20T09:51:06;1.23;;;1.13;;
73474;SDS011;61711;52.266;10.542;2023-07-20T09:53:33;1.35;;;1.20;;
73474;SDS011;61711;52.266;10.542;2023-07-20T09:55:59;1.42;;;1.27;;
73474;SDS011;61711;52.266;10.542;2023-07-20T09:58:26;1.88;;;1.40;;
73474;SDS011;61711;52.266;10.542;2023-07-20T10:00:52;2.20;;;1.15;;
73474;SDS011;61711;52.266;10.542;2023-07-20T10:03:22;2.38;;;1.38;;
73474;SDS011;61711;52.266;10.542;2023-07-20T10:05:52;2.00;;;1.23;;
73474;SDS011;61711;52.266;10.542;2023-07-20T10:08:20;1.35;;;1.25;;
73474;SDS011;61711;52.266;10.542;2023-07-20T10:10:46;2.33;;;1.20;;
73474;SDS011;61711;52.266;10.542;2023-07-20T10:13:17;1.20;;;1.10;;
73474;SDS011;61711;52.266;10.542;2023-07-20T10:15:45;1.40;;;1.30;;
73474;SDS011;61711;52.266;10.542;2023-07-20T10:18:14;1.50;;;1.40;;
73474;SDS011;61711;52.266;10.542;2023-07-20T10:20:43;1.98;;;1.40;;
73474;SDS011;61711;52.266;10.542;2023-07-20T10:23:10;1.88;;;1.40;;
73474;SDS011;61711;52.266;10.542;2023-07-20T10:25:38;1.55;;;1.35;;
73474;SDS011;61711;52.266;10.542;2023-07-20T10:28:06;1.63;;;1.50;;
73474;SDS011;61711;52.266;10.542;2023-07-20T10:30:35;2.72;;;1.70;;
73474;SDS011;61711;52.266;10.542;2023-07-20T10:33:05;2.22;;;1.50;;
73474;SDS011;61711;52.266;10.542;2023-07-20T10:35:31;1.85;;;1.48;;
73474;SDS011;61711;52.266;10.542;2023-07-20T10:38:16;2.22;;;1.30;;
73474;SDS011;61711;52.266;10.542;2023-07-20T10:40:42;1.52;;;1.30;;
73474;SDS011;61711;52.266;10.542;2023-07-20T10:43:08;1.40;;;1.30;;
73474;SDS011;61711;52.266;10.542;2023-07-20T10:48:20;1.23;;;1.13;;
73474;SDS011;61711;52.266;10.542;2023-07-20T10:51:07;3.20;;;1.35;;
73474;SDS011;61711;52.266;10.542;2023-07-20T10:53:32;1.30;;;1.20;;
73474;SDS011;61711;52.266;10.542;2023-07-20T10:56:13;3.10;;;1.70;;
73474;SDS011;61711;52.266;10.542;2023-07-20T10:58:40;1.50;;;1.40;;
73474;SDS011;61711;52.266;10.542;2023-07-20T11:01:07;1.42;;;1.33;;
73474;SDS011;61711;52.266;10.542;2023-07-20T11:03:34;2.47;;;1.13;;
73474;SDS011;61711;52.266;10.542;2023-07-20T11:08:42;4.90;;;1.40;;
73474;SDS011;61711;52.266;10.542;2023-07-20T11:11:21;4.30;;;1.35;;
73474;SDS011;61711;52.266;10.542;2023-07-20T11:13:57;1.60;;;1.40;;
73474;SDS011;61711;52.266;10.542;2023-07-20T11:16:33;2.20;;;1.40;;
73474;SDS011;61711;52.266;10.542;2023-07-20T11:19:00;1.33;;;1.23;;
73474;SDS011;61711;52.266;10.542;2023-07-20T11:21:26;1.85;;;1.40;;
73474;SDS011;61711;52.266;10.542;2023-07-20T11:23:52;1.73;;;1.50;;
73474;SDS011;61711;52.266;10.542;2023-07-20T11:26:18;1.80;;;1.60;;
73474;SDS011;61711;52.266;10.542;2023-07-20T11:28:50;2.55;;;1.58;;
73474;SDS011;61711;52.266;10.542;2023-07-20T11:31:20;1.73;;;1.58;;
73474;SDS011;61711;52.266;10.542;2023-07-20T11:33:46;3.45;;;2.63;;
73474;SDS011;61711;52.266;10.542;2023-07-20T11:36:12;2.58;;;1.60;;
73474;SDS011;61711;52.266;10.542;2023-07-20T11:38:41;1.60;;;1.50;;
73474;SDS011;61711;52.266;10.542;2023-07-20T11:41:08;2.10;;;1.60;;
73474;SDS011;61711;52.266;10.542;2023-07-20T11:43:34;1.70;;;1.60;;
73474;SDS011;61711;52.266;10.542;2023-07-20T11:46:04;2.15;;;1.55;;
73474;SDS011;61711;52.266;10.542;2023-07-20T11:48:30;1.83;;;1.30;;
73474;SDS011;61711;52.266;10.542;2023-07-20T11:50:56;2.75;;;1.92;;
73474;SDS011;61711;52.266;10.542;2023-07-20T11:53:22;1.40;;;1.30;;
73474;SDS011;61711;52.266;10.542;2023-07-20T11:55:50;1.40;;;1.25;;
73474;SDS011;61711;52.266;10.542;2023-07-20T11:58:16;1.30;;;1.20;;
73474;SDS011;61711;52.266;10.542;2023-07-20T12:00:43;1.88;;;1.33;;
73474;SDS011;61711;52.266;10.542;2023-07-20T12:03:11;1.67;;;1.40;;
73474;SDS011;61711;52.266;10.542;2023-07-20T12:05:38;1.42;;;1.33;;
73474;SDS011;61711;52.266;10.542;2023-07-20T12:08:04;1.60;;;1.20;;
73474;SDS011;61711;52.266;10.542;2023-07-20T12:10:30;1.90;;;1.50;;
73474;SDS011;61711;52.266;10.542;2023-07-20T12:13:02;3.65;;;1.20;;
73474;SDS011;61711;52.266;10.542;2023-07-20T12:15:29;2.17;;;1.23;;
73474;SDS011;61711;52.266;10.542;2023-07-20T12:17:56;2.35;;;1.40;;
73474;SDS011;61711;52.266;10.542;2023-07-20T12:20:33;1.90;;;1.17;;
73474;SDS011;61711;52.266;10.542;2023-07-20T12:23:02;1.63;;;1.30;;
73474;SDS011;61711;52.266;10.542;2023-07-20T12:25:48;3.90;;;1.50;;
73474;SDS011;61711;52.266;10.542;2023-07-20T12:28:14;2.65;;;1.30;;
73474;SDS011;61711;52.266;10.542;2023-07-20T12:30:41;1.50;;;1.40;;
73474;SDS011;61711;52.266;10.542;2023-07-20T12:33:09;1.10;;;1.00;;
73474;SDS011;61711;52.266;10.542;2023-07-20T12:35:35;2.30;;;1.20;;
73474;SDS011;61711;52.266;10.542;2023-07-20T12:38:01;1.38;;;1.17;;
73474;SDS011;61711;52.266;10.542;2023-07-20T12:40:27;2.08;;;1.13;;
73474;SDS011;61711;52.266;10.542;2023-07-20T12:42:53;2.97;;;1.10;;
73474;SDS011;61711;52.266;10.542;2023-07-20T12:45:19;1.30;;;1.00;;
73474;SDS011;61711;52.266;10.542;2023-07-20T12:47:45;1.60;;;1.02;;
73474;SDS011;61711;52.266;10.542;2023-07-20T12:50:11;1.83;;;1.10;;
73474;SDS011;61711;52.266;10.542;2023-07-20T12:52:38;2.38;;;1.00;;
73474;SDS011;61711;52.266;10.542;2023-07-20T12:55:08;1.95;;;0.98;;
73474;SDS011;61711;52.266;10.542;2023-07-20T12:57:35;1.83;;;1.23;;
73474;SDS011;61711;52.266;10.542;2023-07-20T13:00:02;1.27;;;1.10;;
73474;SDS011;61711;52.266;10.542;2023-07-20T13:02:29;1.40;;;1.10;;
73474;SDS011;61711;52.266;10.542;2023-07-20T13:04:56;1.83;;;1.15;;
73474;SDS011;61711;52.266;10.542;2023-07-20T13:07:31;1.63;;;1.15;;
73474;SDS011;61711;52.266;10.542;2023-07-20T13:09:58;1.40;;;0.95;;
73474;SDS011;61711;52.266;10.542;2023-07-20T13:12:25;1.67;;;1.00;;
73474;SDS011;61711;52.266;10.542;2023-07-20T13:14:52;1.05;;;0.88;;
73474;SDS011;61711;52.266;10.542;2023-07-20T13:17:18;2.97;;;1.13;;
73474;SDS011;61711;52.266;10.542;2023-07-20T13:19:44;2.15;;;1.15;;
73474;SDS011;61711;52.266;10.542;2023-07-20T13:22:10;1.13;;;1.02;;
73474;SDS011;61711;52.266;10.542;2023-07-20T13:24:36;1.48;;;1.17;;
73474;SDS011;61711;52.266;10.542;2023-07-20T13:27:02;2.40;;;1.33;;
73474;SDS011;61711;52.266;10.542;2023-07-20T13:29:28;1.40;;;1.30;;
73474;SDS011;61711;52.266;10.542;2023-07-20T13:31:54;1.85;;;1.40;;
73474;SDS011;61711;52.266;10.542;2023-07-20T13:34:20;2.05;;;1.20;;
73474;SDS011;61711;52.266;10.542;2023-07-20T13:36:46;2.03;;;1.40;;
73474;SDS011;61711;52.266;10.542;2023-07-20T13:39:12;2.65;;;1.45;;
73474;SDS011;61711;52.266;10.542;2023-07-20T13:41:38;2.55;;;1.45;;
73474;SDS011;61711;52.266;10.542;2023-07-20T13:44:04;2.25;;;1.50;;
73474;SDS011;61711;52.266;10.542;2023-07-20T13:46:30;1.52;;;1.40;;
73474;SDS011;61711;52.266;10.542;2023-07-20T13:48:56;1.83;;;1.40;;
73474;SDS011;61711;52.266;10.542;2023-07-20T13:51:22;1.90;;;1.52;;
73474;SDS011;61711;52.266;10.542;2023-07-20T13:53:48;1.63;;;1.42;;
73474;SDS011;61711;52.266;10.542;2023-07-20T13:56:14;4.20;;;3.25;;
73474;SDS011;61711;52.266;10.542;2023-07-20T13:58:40;6.75;;;6.05;;
73474;SDS011;61711;52.266;10.542;2023-07-20T14:01:06;14.15;;;10.50;;
73474;SDS011;61711;52.266;10.542;2023-07-20T14:03:32;2.38;;;1.50;;
73474;SDS011;61711;52.266;10.542;2023-07-20T14:05:58;1.50;;;1.40;;
73474;SDS011;61711;52.266;10.542;2023-07-20T14:08:24;2.75;;;1.77;;
73474;SDS011;61711;52.266;10.542;2023-07-20T14:10:50;2.00;;;1.40;;
73474;SDS011;61711;52.266;10.542;2023-07-20T14:13:16;1.70;;;1.55;;
73474;SDS011;61711;52.266;10.542;2023-07-20T14:15:42;2.88;;;1.60;;
73474;SDS011;61711;52.266;10.542;2023-07-20T14:18:08;1.85;;;1.65;;
73474;SDS011;61711;52.266;10.542;2023-07-20T14:20:34;2.92;;;1.60;;
73474;SDS011;61711;52.266;10.542;2023-07-20T14:23:00;2.35;;;1.50;;
73474;SDS011;61711;52.266;10.542;2023-07-20T14:25:26;1.80;;;1.40;;
73474;SDS011;61711;52.266;10.542;2023-07-20T14:27:52;4.13;;;1.77;;
73474;SDS011;61711;52.266;10.542;2023-07-20T14:30:18;1.95;;;1.25;;
73474;SDS011;61711;52.266;10.542;2023-07-20T14:32:44;1.73;;;1.30;;
73474;SDS011;61711;52.266;10.542;2023-07-20T14:35:10;1.40;;;1.30;;
73474;SDS011;61711;52.266;10.542;2023-07-20T14:37:36;1.85;;;1.40;;
73474;SDS011;61711;52.266;10.542;2023-07-20T14:40:02;1.52;;;1.42;;
73474;SDS011;61711;52.266;10.542;2023-07-20T14:42:30;1.38;;;1.27;;
73474;SDS011;61711;52.266;10.542;2023-07-20T14:44:57;1.77;;;1.23;;
73474;SDS011;61711;52.266;10.542;2023-07-20T14:47:23;1.25;;;1.15;;